sensor_id;sensor_type;location;lat;lon;timestamp;temperature;humidity
32534;DHT22;18973;48.580;8.912;2023-09-30T00:00:44;16.40;99.90
32534;DHT22;18973;48.580;8.912;2023-09-30T00:03:10;16.50;99.90
32534;DHT22;18973;48.580;8.912;2023-09-30T00:05:38;16.50;99.90
32534;DHT22;18973;48.580;8.912;2023-09-30T00:08:05;16.60;99.90
32534;DHT22;18973;48.580;8.912;2023-09-30T00:10:32;16.60;99.90
32534;DHT22;18973;48.580;8.912;2023-09-30T00:12:57;16.40;99.90
32534;DHT22;18973;48.580;8.912;2023-09-30T00:15:24;16.40;99.90
32534;DHT22;18973;48.580;8.912;2023-09-30T00:17:50;16.40;99.90
32534;DHT22;18973;48.580;8.912;2023-09-30T00:20:16;16.40;99.90
32534;DHT22;18973;48.580;8.912;2023-09-30T00:22:42;16.30;99.90
32534;DHT22;18973;48.580;8.912;2023-09-30T00:25:08;16.30;99.90
32534;DHT22;18973;48.580;8.912;2023-09-30T00:27:33;16.40;99.90
32534;DHT22;18973;48.580;8.912;2023-09-30T00:29:59;16.40;99.90
32534;DHT22;18973;48.580;8.912;2023-09-30T00:32:25;16.10;99.90
32534;DHT22;18973;48.580;8.912;2023-09-30T00:34:50;15.90;99.90
32534;DHT22;18973;48.580;8.912;2023-09-30T00:37:18;15.70;99.90
32534;DHT22;18973;48.580;8.912;2023-09-30T00:39:43;15.90;99.90
32534;DHT22;18973;48.580;8.912;2023-09-30T00:42:10;15.80;99.90
32534;DHT22;18973;48.580;8.912;2023-09-30T00:44:36;16.00;99.90
32534;DHT22;18973;48.580;8.912;2023-09-30T00:47:02;16.00;99.90
32534;DHT22;18973;48.580;8.912;2023-09-30T00:49:29;15.90;99.90
32534;DHT22;18973;48.580;8.912;2023-09-30T00:51:55;15.90;99.90
32534;DHT22;18973;48.580;8.912;2023-09-30T00:54:23;15.70;99.90
32534;DHT22;18973;48.580;8.912;2023-09-30T00:56:52;15.70;99.90
32534;DHT22;18973;48.580;8.912;2023-09-30T00:59:18;15.80;99.90
32534;DHT22;18973;48.580;8.912;2023-09-30T01:01:45;15.90;99.90
32534;DHT22;18973;48.580;8.912;2023-09-30T01:04:12;16.00;99.90
32534;DHT22;18973;48.580;8.912;2023-09-30T01:06:38;15.80;99.90
32534;DHT22;18973;48.580;8.912;2023-09-30T01:09:04;15.60;99.90
32534;DHT22;18973;48.580;8.912;2023-09-30T01:11:30;15.30;99.90
32534;DHT22;18973;48.580;8.912;2023-09-30T01:13:56;15.40;99.90
32534;DHT22;18973;48.580;8.912;2023-09-30T01:16:23;15.40;99.90
32534;DHT22;18973;48.580;8.912;2023-09-30T01:18:49;15.50;99.90
32534;DHT22;18973;48.580;8.912;2023-09-30T01:21:15;15.60;99.90
32534;DHT22;18973;48.580;8.912;2023-09-30T01:23:41;15.70;99.90
32534;DHT22;18973;48.580;8.912;2023-09-30T01:26:13;15.50;99.90
32534;DHT22;18973;48.580;8.912;2023-09-30T01:28:40;15.50;99.90
32534;DHT22;18973;48.580;8.912;2023-09-30T01:31:06;15.50;99.90
32534;DHT22;18973;48.580;8.912;2023-09-30T01:33:32;15.50;99.90
32534;DHT22;18973;48.580;8.912;2023-09-30T01:35:59;15.60;99.90
32534;DHT22;18973;48.580;8.912;2023-09-30T01:38:25;15.60;99.90
32534;DHT22;18973;48.580;8.912;2023-09-30T01:40:51;15.50;99.90
32534;DHT22;18973;48.580;8.912;2023-09-30T01:43:17;15.50;99.90
32534;DHT22;18973;48.580;8.912;2023-09-30T01:45:43;15.50;99.90
32534;DHT22;18973;48.580;8.912;2023-09-30T01:48:10;15.50;99.90
32534;DHT22;18973;48.580;8.912;2023-09-30T01:50:40;15.60;99.90
32534;DHT22;18973;48.580;8.912;2023-09-30T01:53:06;15.70;99.90
32534;DHT22;18973;48.580;8.912;2023-09-30T01:55:33;15.60;99.90
32534;DHT22;18973;48.580;8.912;2023-09-30T01:57:59;15.60;99.90
32534;DHT22;18973;48.580;8.912;2023-09-30T02:00:25;15.70;99.90
32534;DHT22;18973;48.580;8.912;2023-09-30T02:02:56;15.70;99.90
32534;DHT22;18973;48.580;8.912;2023-09-30T02:05:22;15.70;99.90
32534;DHT22;18973;48.580;8.912;2023-09-30T02:07:49;15.70;99.90
32534;DHT22;18973;48.580;8.912;2023-09-30T02:10:15;15.80;99.90
32534;DHT22;18973;48.580;8.912;2023-09-30T02:12:41;15.80;99.90
32534;DHT22;18973;48.580;8.912;2023-09-30T02:15:07;15.40;99.90
32534;DHT22;18973;48.580;8.912;2023-09-30T02:17:33;15.40;99.90
32534;DHT22;18973;48.580;8.912;2023-09-30T02:19:59;15.50;99.90
32534;DHT22;18973;48.580;8.912;2023-09-30T02:22:27;15.70;99.90
32534;DHT22;18973;48.580;8.912;2023-09-30T02:24:53;15.40;99.90
32534;DHT22;18973;48.580;8.912;2023-09-30T02:27:20;15.20;99.90
32534;DHT22;18973;48.580;8.912;2023-09-30T02:29:45;15.20;99.90
32534;DHT22;18973;48.580;8.912;2023-09-30T02:32:11;15.30;99.90
32534;DHT22;18973;48.580;8.912;2023-09-30T02:34:39;15.50;99.90
32534;DHT22;18973;48.580;8.912;2023-09-30T02:37:05;15.50;99.90
32534;DHT22;18973;48.580;8.912;2023-09-30T02:39:30;15.50;99.90
32534;DHT22;18973;48.580;8.912;2023-09-30T02:41:56;15.40;99.90
32534;DHT22;18973;48.580;8.912;2023-09-30T02:44:22;15.40;99.90
32534;DHT22;18973;48.580;8.912;2023-09-30T02:46:47;15.60;99.90
32534;DHT22;18973;48.580;8.912;2023-09-30T02:49:13;15.70;99.90
32534;DHT22;18973;48.580;8.912;2023-09-30T02:51:39;15.70;99.90
32534;DHT22;18973;48.580;8.912;2023-09-30T02:54:05;15.50;99.90
32534;DHT22;18973;48.580;8.912;2023-09-30T02:56:30;15.60;99.90
32534;DHT22;18973;48.580;8.912;2023-09-30T02:58:56;15.80;99.90
32534;DHT22;18973;48.580;8.912;2023-09-30T03:01:23;15.80;99.90
32534;DHT22;18973;48.580;8.912;2023-09-30T03:03:49;15.80;99.90
32534;DHT22;18973;48.580;8.912;2023-09-30T03:06:15;15.70;99.90
32534;DHT22;18973;48.580;8.912;2023-09-30T03:08:41;15.80;99.90
32534;DHT22;18973;48.580;8.912;2023-09-30T03:11:06;15.80;99.90
32534;DHT22;18973;48.580;8.912;2023-09-30T03:13:33;15.90;99.90
32534;DHT22;18973;48.580;8.912;2023-09-30T03:15:59;15.90;99.90
32534;DHT22;18973;48.580;8.912;2023-09-30T03:18:27;15.90;99.90
32534;DHT22;18973;48.580;8.912;2023-09-30T03:20:59;16.00;99.90
32534;DHT22;18973;48.580;8.912;2023-09-30T03:23:27;16.00;99.90
32534;DHT22;18973;48.580;8.912;2023-09-30T03:25:57;15.80;99.90
32534;DHT22;18973;48.580;8.912;2023-09-30T03:28:23;15.90;99.90
32534;DHT22;18973;48.580;8.912;2023-09-30T03:30:48;16.00;99.90
32534;DHT22;18973;48.580;8.912;2023-09-30T03:33:14;16.10;99.90
32534;DHT22;18973;48.580;8.912;2023-09-30T03:35:39;16.10;99.90
32534;DHT22;18973;48.580;8.912;2023-09-30T03:38:07;16.10;99.90
32534;DHT22;18973;48.580;8.912;2023-09-30T03:40:33;16.00;99.90
32534;DHT22;18973;48.580;8.912;2023-09-30T03:42:59;15.80;99.90
32534;DHT22;18973;48.580;8.912;2023-09-30T03:45:25;15.80;99.90
32534;DHT22;18973;48.580;8.912;2023-09-30T03:47:51;16.00;99.90
32534;DHT22;18973;48.580;8.912;2023-09-30T03:50:17;16.00;99.90
32534;DHT22;18973;48.580;8.912;2023-09-30T03:52:44;16.10;99.90
32534;DHT22;18973;48.580;8.912;2023-09-30T03:55:13;16.10;99.90
32534;DHT22;18973;48.580;8.912;2023-09-30T03:57:43;16.10;99.90
32534;DHT22;18973;48.580;8.912;2023-09-30T04:00:13;16.10;99.90
32534;DHT22;18973;48.580;8.912;2023-09-30T04:02:42;16.10;99.90
32534;DHT22;18973;48.580;8.912;2023-09-30T04:05:09;16.10;99.90
32534;DHT22;18973;48.580;8.912;2023-09-30T04:07:39;16.10;99.90
32534;DHT22;18973;48.580;8.912;2023-09-30T04:10:07;16.00;99.90
32534;DHT22;18973;48.580;8.912;2023-09-30T04:12:33;16.10;99.90
32534;DHT22;18973;48.580;8.912;2023-09-30T04:15:00;15.90;99.90
32534;DHT22;18973;48.580;8.912;2023-09-30T04:17:26;15.70;99.90
32534;DHT22;18973;48.580;8.912;2023-09-30T04:19:53;15.80;99.90
32534;DHT22;18973;48.580;8.912;2023-09-30T04:22:18;15.90;99.90
32534;DHT22;18973;48.580;8.912;2023-09-30T04:24:45;15.60;99.90
32534;DHT22;18973;48.580;8.912;2023-09-30T04:27:11;15.30;99.90
32534;DHT22;18973;48.580;8.912;2023-09-30T04:29:36;15.30;99.90
32534;DHT22;18973;48.580;8.912;2023-09-30T04:32:03;15.30;99.90
32534;DHT22;18973;48.580;8.912;2023-09-30T04:34:30;15.30;99.90
32534;DHT22;18973;48.580;8.912;2023-09-30T04:36:56;15.40;99.90
32534;DHT22;18973;48.580;8.912;2023-09-30T04:39:22;15.50;99.90
32534;DHT22;18973;48.580;8.912;2023-09-30T04:41:48;15.20;99.90
32534;DHT22;18973;48.580;8.912;2023-09-30T04:44:14;15.30;99.90
32534;DHT22;18973;48.580;8.912;2023-09-30T04:46:40;15.40;99.90
32534;DHT22;18973;48.580;8.912;2023-09-30T04:49:09;15.50;99.90
32534;DHT22;18973;48.580;8.912;2023-09-30T04:51:35;15.50;99.90
32534;DHT22;18973;48.580;8.912;2023-09-30T04:54:01;15.50;99.90
32534;DHT22;18973;48.580;8.912;2023-09-30T04:56:27;15.60;99.90
32534;DHT22;18973;48.580;8.912;2023-09-30T04:58:53;15.50;99.90
32534;DHT22;18973;48.580;8.912;2023-09-30T05:01:19;15.60;99.90
32534;DHT22;18973;48.580;8.912;2023-09-30T05:03:45;15.60;99.90
32534;DHT22;18973;48.580;8.912;2023-09-30T05:06:15;15.30;99.90
32534;DHT22;18973;48.580;8.912;2023-09-30T05:08:40;15.20;99.90
32534;DHT22;18973;48.580;8.912;2023-09-30T05:11:07;15.10;99.90
32534;DHT22;18973;48.580;8.912;2023-09-30T05:13:32;15.00;99.90
32534;DHT22;18973;48.580;8.912;2023-09-30T05:15:59;15.10;99.90
32534;DHT22;18973;48.580;8.912;2023-09-30T05:18:25;15.20;99.90
32534;DHT22;18973;48.580;8.912;2023-09-30T05:20:51;15.20;99.90
32534;DHT22;18973;48.580;8.912;2023-09-30T05:23:16;15.20;99.90
32534;DHT22;18973;48.580;8.912;2023-09-30T05:25:43;15.10;99.90
32534;DHT22;18973;48.580;8.912;2023-09-30T05:28:09;15.10;99.90
32534;DHT22;18973;48.580;8.912;2023-09-30T05:30:35;15.00;99.90
32534;DHT22;18973;48.580;8.912;2023-09-30T05:33:01;15.00;99.90
32534;DHT22;18973;48.580;8.912;2023-09-30T05:35:27;15.00;99.90
32534;DHT22;18973;48.580;8.912;2023-09-30T05:37:53;15.20;99.90
32534;DHT22;18973;48.580;8.912;2023-09-30T05:40:20;15.30;99.90
32534;DHT22;18973;48.580;8.912;2023-09-30T05:42:53;15.30;99.90
32534;DHT22;18973;48.580;8.912;2023-09-30T05:45:19;15.10;99.90
32534;DHT22;18973;48.580;8.912;2023-09-30T05:47:45;15.20;99.90
32534;DHT22;18973;48.580;8.912;2023-09-30T05:50:11;15.00;99.90
32534;DHT22;18973;48.580;8.912;2023-09-30T05:52:43;14.80;99.90
32534;DHT22;18973;48.580;8.912;2023-09-30T05:55:10;14.70;99.90
32534;DHT22;18973;48.580;8.912;2023-09-30T05:57:36;14.80;99.90
32534;DHT22;18973;48.580;8.912;2023-09-30T06:00:03;14.80;99.90
32534;DHT22;18973;48.580;8.912;2023-09-30T06:02:53;15.00;99.90
32534;DHT22;18973;48.580;8.912;2023-09-30T06:05:19;15.20;99.90
32534;DHT22;18973;48.580;8.912;2023-09-30T06:07:49;15.20;99.90
32534;DHT22;18973;48.580;8.912;2023-09-30T06:10:14;15.20;99.90
32534;DHT22;18973;48.580;8.912;2023-09-30T06:12:51;15.40;99.90
32534;DHT22;18973;48.580;8.912;2023-09-30T06:15:20;15.30;99.90
32534;DHT22;18973;48.580;8.912;2023-09-30T06:17:50;15.20;99.90
32534;DHT22;18973;48.580;8.912;2023-09-30T06:20:18;15.20;99.90
32534;DHT22;18973;48.580;8.912;2023-09-30T06:22:44;15.50;99.90
32534;DHT22;18973;48.580;8.912;2023-09-30T06:25:15;15.50;99.90
32534;DHT22;18973;48.580;8.912;2023-09-30T06:27:45;15.20;99.90
32534;DHT22;18973;48.580;8.912;2023-09-30T06:30:12;15.30;99.90
32534;DHT22;18973;48.580;8.912;2023-09-30T06:32:39;15.40;99.90
32534;DHT22;18973;48.580;8.912;2023-09-30T06:35:06;15.50;99.90
32534;DHT22;18973;48.580;8.912;2023-09-30T06:37:32;15.60;99.90
32534;DHT22;18973;48.580;8.912;2023-09-30T06:39:58;15.60;99.90
32534;DHT22;18973;48.580;8.912;2023-09-30T06:42:25;15.70;99.90
32534;DHT22;18973;48.580;8.912;2023-09-30T06:44:52;15.80;99.90
32534;DHT22;18973;48.580;8.912;2023-09-30T06:47:18;15.90;99.90
32534;DHT22;18973;48.580;8.912;2023-09-30T06:49:44;15.90;99.90
32534;DHT22;18973;48.580;8.912;2023-09-30T06:52:10;15.90;99.90
32534;DHT22;18973;48.580;8.912;2023-09-30T06:54:36;15.80;99.90
32534;DHT22;18973;48.580;8.912;2023-09-30T06:57:02;15.70;99.90
32534;DHT22;18973;48.580;8.912;2023-09-30T06:59:28;15.70;99.90
32534;DHT22;18973;48.580;8.912;2023-09-30T07:01:53;15.70;99.90
32534;DHT22;18973;48.580;8.912;2023-09-30T07:04:20;15.70;99.90
32534;DHT22;18973;48.580;8.912;2023-09-30T07:06:47;15.70;99.90
32534;DHT22;18973;48.580;8.912;2023-09-30T07:09:12;15.60;99.90
32534;DHT22;18973;48.580;8.912;2023-09-30T07:11:38;15.60;99.90
32534;DHT22;18973;48.580;8.912;2023-09-30T07:14:04;15.70;99.90
32534;DHT22;18973;48.580;8.912;2023-09-30T07:16:30;15.90;99.90
32534;DHT22;18973;48.580;8.912;2023-09-30T07:18:55;16.00;99.90
32534;DHT22;18973;48.580;8.912;2023-09-30T07:21:21;16.00;99.90
32534;DHT22;18973;48.580;8.912;2023-09-30T07:23:47;16.10;99.90
32534;DHT22;18973;48.580;8.912;2023-09-30T07:26:13;16.20;99.90
32534;DHT22;18973;48.580;8.912;2023-09-30T07:28:42;16.40;99.90
32534;DHT22;18973;48.580;8.912;2023-09-30T07:31:08;16.50;99.90
32534;DHT22;18973;48.580;8.912;2023-09-30T07:33:33;16.60;99.90
32534;DHT22;18973;48.580;8.912;2023-09-30T07:35:59;16.70;99.90
32534;DHT22;18973;48.580;8.912;2023-09-30T07:38:25;16.90;99.90
32534;DHT22;18973;48.580;8.912;2023-09-30T07:40:50;17.20;99.90
32534;DHT22;18973;48.580;8.912;2023-09-30T07:43:16;17.40;99.90
32534;DHT22;18973;48.580;8.912;2023-09-30T07:45:43;17.50;99.90
32534;DHT22;18973;48.580;8.912;2023-09-30T07:48:09;17.70;99.90
32534;DHT22;18973;48.580;8.912;2023-09-30T07:50:36;17.80;99.90
32534;DHT22;18973;48.580;8.912;2023-09-30T07:53:02;17.80;99.90
32534;DHT22;18973;48.580;8.912;2023-09-30T07:55:27;17.90;99.90
32534;DHT22;18973;48.580;8.912;2023-09-30T07:57:54;18.00;99.90
32534;DHT22;18973;48.580;8.912;2023-09-30T08:00:19;18.20;99.90
32534;DHT22;18973;48.580;8.912;2023-09-30T08:02:47;18.40;99.90
32534;DHT22;18973;48.580;8.912;2023-09-30T08:05:13;18.50;99.90
32534;DHT22;18973;48.580;8.912;2023-09-30T08:07:39;18.70;99.90
32534;DHT22;18973;48.580;8.912;2023-09-30T08:10:05;18.60;99.90
32534;DHT22;18973;48.580;8.912;2023-09-30T08:12:32;18.70;99.90
32534;DHT22;18973;48.580;8.912;2023-09-30T08:14:58;18.70;99.90
32534;DHT22;18973;48.580;8.912;2023-09-30T08:17:24;18.80;99.90
32534;DHT22;18973;48.580;8.912;2023-09-30T08:19:49;19.00;99.90
32534;DHT22;18973;48.580;8.912;2023-09-30T08:22:15;19.10;99.90
32534;DHT22;18973;48.580;8.912;2023-09-30T08:24:41;19.30;99.90
32534;DHT22;18973;48.580;8.912;2023-09-30T08:27:06;19.40;99.90
32534;DHT22;18973;48.580;8.912;2023-09-30T08:29:35;19.60;99.90
32534;DHT22;18973;48.580;8.912;2023-09-30T08:32:04;19.70;99.90
32534;DHT22;18973;48.580;8.912;2023-09-30T08:34:30;19.60;99.90
32534;DHT22;18973;48.580;8.912;2023-09-30T08:36:56;19.50;99.90
32534;DHT22;18973;48.580;8.912;2023-09-30T08:39:22;19.70;99.90
32534;DHT22;18973;48.580;8.912;2023-09-30T08:41:49;19.80;99.90
32534;DHT22;18973;48.580;8.912;2023-09-30T08:44:15;19.70;99.90
32534;DHT22;18973;48.580;8.912;2023-09-30T08:46:41;19.90;99.90
32534;DHT22;18973;48.580;8.912;2023-09-30T08:49:08;20.20;99.90
32534;DHT22;18973;48.580;8.912;2023-09-30T08:51:35;20.40;99.90
32534;DHT22;18973;48.580;8.912;2023-09-30T08:54:02;20.30;99.90
32534;DHT22;18973;48.580;8.912;2023-09-30T08:56:31;20.30;99.90
32534;DHT22;18973;48.580;8.912;2023-09-30T08:59:02;20.40;99.90
32534;DHT22;18973;48.580;8.912;2023-09-30T09:01:29;20.50;99.90
32534;DHT22;18973;48.580;8.912;2023-09-30T09:03:56;20.60;99.90
32534;DHT22;18973;48.580;8.912;2023-09-30T09:06:23;20.40;99.90
32534;DHT22;18973;48.580;8.912;2023-09-30T09:08:50;20.30;99.90
32534;DHT22;18973;48.580;8.912;2023-09-30T09:11:16;20.40;99.90
32534;DHT22;18973;48.580;8.912;2023-09-30T09:13:49;20.30;99.90
32534;DHT22;18973;48.580;8.912;2023-09-30T09:16:17;20.50;99.90
32534;DHT22;18973;48.580;8.912;2023-09-30T09:18:46;20.70;99.90
32534;DHT22;18973;48.580;8.912;2023-09-30T09:21:19;20.70;99.90
32534;DHT22;18973;48.580;8.912;2023-09-30T09:23:48;20.50;99.90
32534;DHT22;18973;48.580;8.912;2023-09-30T09:26:28;20.40;99.90
32534;DHT22;18973;48.580;8.912;2023-09-30T09:28:58;20.30;99.90
32534;DHT22;18973;48.580;8.912;2023-09-30T09:31:33;20.30;99.90
32534;DHT22;18973;48.580;8.912;2023-09-30T09:34:13;20.10;99.90
32534;DHT22;18973;48.580;8.912;2023-09-30T09:36:44;19.90;99.90
32534;DHT22;18973;48.580;8.912;2023-09-30T09:39:11;20.10;99.90
32534;DHT22;18973;48.580;8.912;2023-09-30T09:41:54;20.20;99.90
32534;DHT22;18973;48.580;8.912;2023-09-30T09:44:22;20.40;99.90
32534;DHT22;18973;48.580;8.912;2023-09-30T09:46:49;20.60;99.90
32534;DHT22;18973;48.580;8.912;2023-09-30T09:49:17;20.60;99.90
32534;DHT22;18973;48.580;8.912;2023-09-30T09:51:45;20.70;99.90
32534;DHT22;18973;48.580;8.912;2023-09-30T09:54:15;20.90;99.90
32534;DHT22;18973;48.580;8.912;2023-09-30T09:56:44;21.30;99.90
32534;DHT22;18973;48.580;8.912;2023-09-30T09:59:11;21.50;99.90
32534;DHT22;18973;48.580;8.912;2023-09-30T10:01:38;21.80;99.90
32534;DHT22;18973;48.580;8.912;2023-09-30T10:04:05;22.30;99.90
32534;DHT22;18973;48.580;8.912;2023-09-30T10:06:32;22.70;99.90
32534;DHT22;18973;48.580;8.912;2023-09-30T10:09:06;22.90;99.90
32534;DHT22;18973;48.580;8.912;2023-09-30T10:11:33;22.80;99.90
32534;DHT22;18973;48.580;8.912;2023-09-30T10:13:59;22.70;99.90
32534;DHT22;18973;48.580;8.912;2023-09-30T10:21:35;22.30;99.80
32534;DHT22;18973;48.580;8.912;2023-09-30T10:35:58;23.40;98.30
32534;DHT22;18973;48.580;8.912;2023-09-30T10:40:50;23.60;96.90
32534;DHT22;18973;48.580;8.912;2023-09-30T10:43:38;23.70;98.00
32534;DHT22;18973;48.580;8.912;2023-09-30T10:48:52;23.50;96.20
32534;DHT22;18973;48.580;8.912;2023-09-30T10:51:19;23.50;96.70
32534;DHT22;18973;48.580;8.912;2023-09-30T10:53:50;23.90;96.20
32534;DHT22;18973;48.580;8.912;2023-09-30T10:56:22;24.20;95.10
32534;DHT22;18973;48.580;8.912;2023-09-30T10:58:50;24.20;95.40
32534;DHT22;18973;48.580;8.912;2023-09-30T11:01:21;24.10;95.00
32534;DHT22;18973;48.580;8.912;2023-09-30T11:03:48;24.10;95.00
32534;DHT22;18973;48.580;8.912;2023-09-30T11:06:19;24.10;95.00
32534;DHT22;18973;48.580;8.912;2023-09-30T11:08:54;24.00;94.10
32534;DHT22;18973;48.580;8.912;2023-09-30T11:11:39;24.00;94.30
32534;DHT22;18973;48.580;8.912;2023-09-30T11:14:20;24.00;94.00
32534;DHT22;18973;48.580;8.912;2023-09-30T11:16:47;24.10;94.60
32534;DHT22;18973;48.580;8.912;2023-09-30T11:19:14;24.20;94.10
32534;DHT22;18973;48.580;8.912;2023-09-30T11:21:41;24.30;94.90
32534;DHT22;18973;48.580;8.912;2023-09-30T11:24:07;24.30;93.60
32534;DHT22;18973;48.580;8.912;2023-09-30T11:26:34;24.40;94.50
32534;DHT22;18973;48.580;8.912;2023-09-30T11:31:32;24.80;93.50
32534;DHT22;18973;48.580;8.912;2023-09-30T11:34:00;24.80;93.80
32534;DHT22;18973;48.580;8.912;2023-09-30T11:36:30;24.00;93.10
32534;DHT22;18973;48.580;8.912;2023-09-30T11:38:59;23.50;94.70
32534;DHT22;18973;48.580;8.912;2023-09-30T11:41:39;23.40;94.80
32534;DHT22;18973;48.580;8.912;2023-09-30T11:44:11;23.50;94.90
32534;DHT22;18973;48.580;8.912;2023-09-30T11:46:48;23.70;94.20
32534;DHT22;18973;48.580;8.912;2023-09-30T11:51:58;23.70;93.90
32534;DHT22;18973;48.580;8.912;2023-09-30T11:54:35;23.40;93.90
32534;DHT22;18973;48.580;8.912;2023-09-30T11:57:05;23.10;94.70
32534;DHT22;18973;48.580;8.912;2023-09-30T11:59:31;23.30;91.80
32534;DHT22;18973;48.580;8.912;2023-09-30T12:01:57;23.10;91.70
32534;DHT22;18973;48.580;8.912;2023-09-30T12:04:24;23.10;92.40
32534;DHT22;18973;48.580;8.912;2023-09-30T12:06:50;23.00;93.20
32534;DHT22;18973;48.580;8.912;2023-09-30T12:09:16;23.10;92.50
32534;DHT22;18973;48.580;8.912;2023-09-30T12:11:42;22.50;91.20
32534;DHT22;18973;48.580;8.912;2023-09-30T12:14:12;22.70;92.40
32534;DHT22;18973;48.580;8.912;2023-09-30T12:16:39;23.00;91.90
32534;DHT22;18973;48.580;8.912;2023-09-30T12:19:05;23.00;91.30
32534;DHT22;18973;48.580;8.912;2023-09-30T12:21:34;23.20;92.10
32534;DHT22;18973;48.580;8.912;2023-09-30T12:24:01;23.40;91.60
32534;DHT22;18973;48.580;8.912;2023-09-30T12:26:29;23.50;91.10
32534;DHT22;18973;48.580;8.912;2023-09-30T12:28:55;23.60;91.20
32534;DHT22;18973;48.580;8.912;2023-09-30T12:31:22;23.80;90.80
32534;DHT22;18973;48.580;8.912;2023-09-30T12:33:48;23.20;90.70
32534;DHT22;18973;48.580;8.912;2023-09-30T12:36:17;23.40;91.20
32534;DHT22;18973;48.580;8.912;2023-09-30T12:38:43;23.50;91.90
32534;DHT22;18973;48.580;8.912;2023-09-30T12:41:09;23.80;92.00
32534;DHT22;18973;48.580;8.912;2023-09-30T12:43:35;24.00;91.90
32534;DHT22;18973;48.580;8.912;2023-09-30T12:46:00;24.20;91.60
32534;DHT22;18973;48.580;8.912;2023-09-30T12:48:26;24.20;91.80
32534;DHT22;18973;48.580;8.912;2023-09-30T12:50:52;24.30;91.90
32534;DHT22;18973;48.580;8.912;2023-09-30T12:53:18;24.30;90.10
32534;DHT22;18973;48.580;8.912;2023-09-30T12:55:43;24.10;90.60
32534;DHT22;18973;48.580;8.912;2023-09-30T12:58:11;24.20;90.10
32534;DHT22;18973;48.580;8.912;2023-09-30T13:00:36;24.10;90.10
32534;DHT22;18973;48.580;8.912;2023-09-30T13:03:03;24.20;89.60
32534;DHT22;18973;48.580;8.912;2023-09-30T13:05:29;24.30;91.10
32534;DHT22;18973;48.580;8.912;2023-09-30T13:07:55;24.10;91.10
32534;DHT22;18973;48.580;8.912;2023-09-30T13:10:22;24.20;91.40
32534;DHT22;18973;48.580;8.912;2023-09-30T13:12:48;24.10;90.30
32534;DHT22;18973;48.580;8.912;2023-09-30T13:15:18;24.20;90.20
32534;DHT22;18973;48.580;8.912;2023-09-30T13:17:43;24.20;91.00
32534;DHT22;18973;48.580;8.912;2023-09-30T13:20:10;24.20;90.70
32534;DHT22;18973;48.580;8.912;2023-09-30T13:22:40;24.00;89.70
32534;DHT22;18973;48.580;8.912;2023-09-30T13:25:06;24.00;90.80
32534;DHT22;18973;48.580;8.912;2023-09-30T13:27:34;23.80;91.40
32534;DHT22;18973;48.580;8.912;2023-09-30T13:29:59;23.70;91.90
32534;DHT22;18973;48.580;8.912;2023-09-30T13:32:26;23.70;91.10
32534;DHT22;18973;48.580;8.912;2023-09-30T13:34:52;23.60;91.20
32534;DHT22;18973;48.580;8.912;2023-09-30T13:37:18;23.50;91.10
32534;DHT22;18973;48.580;8.912;2023-09-30T13:39:43;23.40;92.00
32534;DHT22;18973;48.580;8.912;2023-09-30T13:42:09;23.50;90.80
32534;DHT22;18973;48.580;8.912;2023-09-30T13:44:35;23.20;90.60
32534;DHT22;18973;48.580;8.912;2023-09-30T13:47:02;23.00;90.50
32534;DHT22;18973;48.580;8.912;2023-09-30T13:49:28;23.10;91.20
32534;DHT22;18973;48.580;8.912;2023-09-30T13:51:55;23.10;90.40
32534;DHT22;18973;48.580;8.912;2023-09-30T13:54:21;23.10;90.80
32534;DHT22;18973;48.580;8.912;2023-09-30T13:56:47;23.00;90.50
32534;DHT22;18973;48.580;8.912;2023-09-30T13:59:13;22.70;90.60
32534;DHT22;18973;48.580;8.912;2023-09-30T14:01:39;22.50;91.10
32534;DHT22;18973;48.580;8.912;2023-09-30T14:04:07;22.60;91.20
32534;DHT22;18973;48.580;8.912;2023-09-30T14:06:33;22.60;91.40
32534;DHT22;18973;48.580;8.912;2023-09-30T14:08:59;22.60;90.70
32534;DHT22;18973;48.580;8.912;2023-09-30T14:11:26;22.60;91.00
32534;DHT22;18973;48.580;8.912;2023-09-30T14:13:51;22.50;90.90
32534;DHT22;18973;48.580;8.912;2023-09-30T14:16:17;22.40;90.90
32534;DHT22;18973;48.580;8.912;2023-09-30T14:18:43;22.30;91.10
32534;DHT22;18973;48.580;8.912;2023-09-30T14:21:10;22.10;91.50
32534;DHT22;18973;48.580;8.912;2023-09-30T14:23:36;22.20;92.10
32534;DHT22;18973;48.580;8.912;2023-09-30T14:26:01;22.20;91.50
32534;DHT22;18973;48.580;8.912;2023-09-30T14:28:36;22.20;91.30
32534;DHT22;18973;48.580;8.912;2023-09-30T14:31:05;22.10;91.40
32534;DHT22;18973;48.580;8.912;2023-09-30T14:33:31;22.20;92.70
32534;DHT22;18973;48.580;8.912;2023-09-30T14:35:57;22.10;91.30
32534;DHT22;18973;48.580;8.912;2023-09-30T14:38:22;22.00;91.70
32534;DHT22;18973;48.580;8.912;2023-09-30T14:40:49;21.70;92.90
32534;DHT22;18973;48.580;8.912;2023-09-30T14:43:15;21.50;93.60
32534;DHT22;18973;48.580;8.912;2023-09-30T14:45:41;21.40;93.80
32534;DHT22;18973;48.580;8.912;2023-09-30T14:48:08;21.60;94.20
32534;DHT22;18973;48.580;8.912;2023-09-30T14:50:35;21.60;93.60
32534;DHT22;18973;48.580;8.912;2023-09-30T14:53:02;21.50;93.90
32534;DHT22;18973;48.580;8.912;2023-09-30T14:55:30;21.60;94.30
32534;DHT22;18973;48.580;8.912;2023-09-30T14:57:56;21.60;94.10
32534;DHT22;18973;48.580;8.912;2023-09-30T15:00:22;21.50;94.20
32534;DHT22;18973;48.580;8.912;2023-09-30T15:02:50;21.40;94.30
32534;DHT22;18973;48.580;8.912;2023-09-30T15:05:16;21.20;95.00
32534;DHT22;18973;48.580;8.912;2023-09-30T15:07:42;21.40;95.00
32534;DHT22;18973;48.580;8.912;2023-09-30T15:10:08;21.50;94.40
32534;DHT22;18973;48.580;8.912;2023-09-30T15:12:35;21.30;94.20
32534;DHT22;18973;48.580;8.912;2023-09-30T15:15:01;21.40;94.70
32534;DHT22;18973;48.580;8.912;2023-09-30T15:17:26;21.30;94.80
32534;DHT22;18973;48.580;8.912;2023-09-30T15:19:54;21.30;95.10
32534;DHT22;18973;48.580;8.912;2023-09-30T15:22:20;21.30;94.50
32534;DHT22;18973;48.580;8.912;2023-09-30T15:24:46;21.20;94.70
32534;DHT22;18973;48.580;8.912;2023-09-30T15:27:11;21.30;94.90
32534;DHT22;18973;48.580;8.912;2023-09-30T15:29:37;21.20;94.80
32534;DHT22;18973;48.580;8.912;2023-09-30T15:32:06;21.30;95.20
32534;DHT22;18973;48.580;8.912;2023-09-30T15:34:31;21.20;94.80
32534;DHT22;18973;48.580;8.912;2023-09-30T15:36:57;21.20;94.90
32534;DHT22;18973;48.580;8.912;2023-09-30T15:39:23;21.20;94.70
32534;DHT22;18973;48.580;8.912;2023-09-30T15:41:48;21.10;95.10
32534;DHT22;18973;48.580;8.912;2023-09-30T15:44:14;21.00;95.30
32534;DHT22;18973;48.580;8.912;2023-09-30T15:46:39;21.10;95.30
32534;DHT22;18973;48.580;8.912;2023-09-30T15:49:05;20.90;95.30
32534;DHT22;18973;48.580;8.912;2023-09-30T15:51:31;20.90;95.40
32534;DHT22;18973;48.580;8.912;2023-09-30T15:53:56;20.90;95.10
32534;DHT22;18973;48.580;8.912;2023-09-30T15:56:23;20.90;95.30